sensor_id;sensor_type;location;lat;lon;timestamp;pressure;altitude;pressure_sealevel;temperature;humidity
61345;BME280;47216;42.656;23.232;2023-08-24T00:00:22;94067.66;;;21.84;63.24
61345;BME280;47216;42.656;23.232;2023-08-24T00:02:49;94069.38;;;21.89;63.32
61345;BME280;47216;42.656;23.232;2023-08-24T00:05:16;94066.06;;;21.92;63.00
61345;BME280;47216;42.656;23.232;2023-08-24T00:07:43;94065.00;;;21.93;63.07
61345;BME280;47216;42.656;23.232;2023-08-24T00:10:09;94071.84;;;21.76;63.38
61345;BME280;47216;42.656;23.232;2023-08-24T00:12:36;94064.38;;;21.61;63.90
61345;BME280;47216;42.656;23.232;2023-08-24T00:15:07;94062.31;;;21.58;64.19
61345;BME280;47216;42.656;23.232;2023-08-24T00:17:36;94060.13;;;21.51;64.47
61345;BME280;47216;42.656;23.232;2023-08-24T00:20:03;94063.72;;;21.47;64.52
61345;BME280;47216;42.656;23.232;2023-08-24T00:22:30;94054.03;;;21.42;64.65
61345;BME280;47216;42.656;23.232;2023-08-24T00:24:57;94053.25;;;21.50;64.61
61345;BME280;47216;42.656;23.232;2023-08-24T00:27:24;94046.53;;;21.53;64.55
61345;BME280;47216;42.656;23.232;2023-08-24T00:29:50;94049.84;;;21.58;64.29
61345;BME280;47216;42.656;23.232;2023-08-24T00:32:17;94046.25;;;21.63;64.17
61345;BME280;47216;42.656;23.232;2023-08-24T00:34:45;94049.81;;;21.67;63.99
61345;BME280;47216;42.656;23.232;2023-08-24T00:37:12;94045.63;;;21.66;64.09
61345;BME280;47216;42.656;23.232;2023-08-24T00:39:39;94040.63;;;21.73;63.91
61345;BME280;47216;42.656;23.232;2023-08-24T00:42:06;94045.31;;;21.76;63.63
61345;BME280;47216;42.656;23.232;2023-08-24T00:44:34;94049.69;;;21.72;63.79
61345;BME280;47216;42.656;23.232;2023-08-24T00:47:00;94057.78;;;21.67;63.80
61345;BME280;47216;42.656;23.232;2023-08-24T00:49:27;94060.31;;;21.72;63.60
61345;BME280;47216;42.656;23.232;2023-08-24T00:51:56;94063.28;;;21.71;64.04
61345;BME280;47216;42.656;23.232;2023-08-24T00:54:22;94066.41;;;21.81;63.92
61345;BME280;47216;42.656;23.232;2023-08-24T00:56:49;94062.47;;;21.88;63.79
61345;BME280;47216;42.656;23.232;2023-08-24T00:59:16;94064.06;;;21.89;63.64
61345;BME280;47216;42.656;23.232;2023-08-24T01:01:44;94054.03;;;21.86;63.81
61345;BME280;47216;42.656;23.232;2023-08-24T01:04:11;94055.47;;;21.74;63.48
61345;BME280;47216;42.656;23.232;2023-08-24T01:06:39;94057.78;;;21.67;63.93
61345;BME280;47216;42.656;23.232;2023-08-24T01:09:07;94051.41;;;21.68;63.75
61345;BME280;47216;42.656;23.232;2023-08-24T01:11:43;94049.34;;;21.48;64.09
61345;BME280;47216;42.656;23.232;2023-08-24T01:14:21;94052.16;;;21.43;64.66
61345;BME280;47216;42.656;23.232;2023-08-24T01:16:51;94063.34;;;21.39;64.67
61345;BME280;47216;42.656;23.232;2023-08-24T01:19:31;94057.00;;;21.40;64.96
61345;BME280;47216;42.656;23.232;2023-08-24T01:22:02;94053.56;;;21.40;65.17
61345;BME280;47216;42.656;23.232;2023-08-24T01:24:37;94044.34;;;21.46;65.08
61345;BME280;47216;42.656;23.232;2023-08-24T01:27:06;94035.63;;;21.46;64.64
61345;BME280;47216;42.656;23.232;2023-08-24T01:29:35;94045.88;;;21.38;64.96
61345;BME280;47216;42.656;23.232;2023-08-24T01:32:04;94039.03;;;21.37;64.96
61345;BME280;47216;42.656;23.232;2023-08-24T01:34:31;94045.72;;;21.35;65.05
61345;BME280;47216;42.656;23.232;2023-08-24T01:36:58;94043.53;;;21.37;64.99
61345;BME280;47216;42.656;23.232;2023-08-24T01:39:31;94042.75;;;21.36;65.05
61345;BME280;47216;42.656;23.232;2023-08-24T01:42:02;94038.44;;;21.40;65.21
61345;BME280;47216;42.656;23.232;2023-08-24T01:44:35;94045.09;;;21.38;65.17
61345;BME280;47216;42.656;23.232;2023-08-24T01:47:04;94039.03;;;21.37;65.12
61345;BME280;47216;42.656;23.232;2023-08-24T01:49:34;94042.28;;;21.34;64.96
61345;BME280;47216;42.656;23.232;2023-08-24T01:52:03;94049.63;;;21.37;65.01
61345;BME280;47216;42.656;23.232;2023-08-24T01:54:30;94056.50;;;21.38;65.06
61345;BME280;47216;42.656;23.232;2023-08-24T01:56:57;94055.59;;;21.43;65.02
61345;BME280;47216;42.656;23.232;2023-08-24T01:59:24;94059.03;;;21.44;64.94
61345;BME280;47216;42.656;23.232;2023-08-24T02:01:52;94057.59;;;21.37;65.41
61345;BME280;47216;42.656;23.232;2023-08-24T02:04:19;94051.50;;;21.28;65.68
61345;BME280;47216;42.656;23.232;2023-08-24T02:06:46;94062.09;;;21.28;65.46
61345;BME280;47216;42.656;23.232;2023-08-24T02:09:13;94056.63;;;21.25;65.76
61345;BME280;47216;42.656;23.232;2023-08-24T02:11:39;94060.97;;;21.20;65.88
61345;BME280;47216;42.656;23.232;2023-08-24T02:14:06;94059.09;;;21.21;66.04
61345;BME280;47216;42.656;23.232;2023-08-24T02:16:33;94063.31;;;21.22;65.89
61345;BME280;47216;42.656;23.232;2023-08-24T02:19:01;94060.97;;;21.20;65.87
61345;BME280;47216;42.656;23.232;2023-08-24T02:21:28;94063.94;;;21.19;65.94
61345;BME280;47216;42.656;23.232;2023-08-24T02:23:54;94061.16;;;21.24;65.97
61345;BME280;47216;42.656;23.232;2023-08-24T02:26:21;94067.19;;;21.16;66.11
61345;BME280;47216;42.656;23.232;2023-08-24T02:28:48;94068.31;;;21.15;66.42
61345;BME280;47216;42.656;23.232;2023-08-24T02:31:15;94067.19;;;21.16;66.33
61345;BME280;47216;42.656;23.232;2023-08-24T02:33:41;94066.13;;;21.17;66.10
61345;BME280;47216;42.656;23.232;2023-08-24T02:36:10;94073.91;;;21.13;66.36
61345;BME280;47216;42.656;23.232;2023-08-24T02:38:37;94068.31;;;21.15;66.24
61345;BME280;47216;42.656;23.232;2023-08-24T02:41:05;94063.16;;;21.10;66.38
61345;BME280;47216;42.656;23.232;2023-08-24T02:43:33;94063.75;;;21.07;66.49
61345;BME280;47216;42.656;23.232;2023-08-24T02:46:00;94056.09;;;20.96;66.61
61345;BME280;47216;42.656;23.232;2023-08-24T02:48:28;94059.47;;;20.88;66.96
61345;BME280;47216;42.656;23.232;2023-08-24T02:50:56;94040.59;;;20.81;67.21
61345;BME280;47216;42.656;23.232;2023-08-24T02:53:25;94042.91;;;20.74;67.41
61345;BME280;47216;42.656;23.232;2023-08-24T02:55:52;94037.56;;;20.65;67.32
61345;BME280;47216;42.656;23.232;2023-08-24T02:58:19;94041.22;;;20.55;67.69
61345;BME280;47216;42.656;23.232;2023-08-24T03:00:46;94036.56;;;20.52;67.86
61345;BME280;47216;42.656;23.232;2023-08-24T03:03:13;94036.22;;;20.54;67.73
61345;BME280;47216;42.656;23.232;2023-08-24T03:05:41;94034.69;;;20.53;68.21
61345;BME280;47216;42.656;23.232;2023-08-24T03:08:08;94039.50;;;20.51;68.22
61345;BME280;47216;42.656;23.232;2023-08-24T03:10:36;94038.09;;;20.53;68.28
61345;BME280;47216;42.656;23.232;2023-08-24T03:13:03;94048.13;;;20.56;68.37
61345;BME280;47216;42.656;23.232;2023-08-24T03:15:30;94052.34;;;20.58;68.41
61345;BME280;47216;42.656;23.232;2023-08-24T03:17:57;94062.81;;;20.63;68.16
61345;BME280;47216;42.656;23.232;2023-08-24T03:20:24;94067.38;;;20.71;68.24
61345;BME280;47216;42.656;23.232;2023-08-24T03:22:50;94070.19;;;20.74;68.05
61345;BME280;47216;42.656;23.232;2023-08-24T03:25:17;94081.13;;;20.82;67.94
61345;BME280;47216;42.656;23.232;2023-08-24T03:27:45;94081.44;;;20.80;67.66
61345;BME280;47216;42.656;23.232;2023-08-24T03:30:13;94090.47;;;20.79;67.76
61345;BME280;47216;42.656;23.232;2023-08-24T03:32:40;94085.31;;;20.74;67.85
61345;BME280;47216;42.656;23.232;2023-08-24T03:35:07;94080.31;;;20.72;67.80
61345;BME280;47216;42.656;23.232;2023-08-24T03:37:34;94094.00;;;20.66;68.27
61345;BME280;47216;42.656;23.232;2023-08-24T03:40:01;94092.28;;;20.61;68.04
61345;BME280;47216;42.656;23.232;2023-08-24T03:42:29;94090.53;;;20.56;68.06
61345;BME280;47216;42.656;23.232;2023-08-24T03:44:59;94082.50;;;20.48;68.58
61345;BME280;47216;42.656;23.232;2023-08-24T03:47:25;94096.66;;;20.43;68.61
61345;BME280;47216;42.656;23.232;2023-08-24T03:49:52;94087.63;;;20.44;68.62
61345;BME280;47216;42.656;23.232;2023-08-24T03:52:19;94092.75;;;20.41;68.86
61345;BME280;47216;42.656;23.232;2023-08-24T03:54:46;94097.56;;;20.39;68.62
61345;BME280;47216;42.656;23.232;2023-08-24T03:57:12;94101.94;;;20.43;68.96
61345;BME280;47216;42.656;23.232;2023-08-24T03:59:39;94101.81;;;20.48;68.63
61345;BME280;47216;42.656;23.232;2023-08-24T04:02:07;94104.66;;;20.52;68.73
61345;BME280;47216;42.656;23.232;2023-08-24T04:04:34;94101.69;;;20.53;68.46
61345;BME280;47216;42.656;23.232;2023-08-24T04:07:01;94090.13;;;20.49;68.58
61345;BME280;47216;42.656;23.232;2023-08-24T04:09:28;94101.34;;;20.46;68.77
61345;BME280;47216;42.656;23.232;2023-08-24T04:11:55;94095.75;;;20.48;68.74
61345;BME280;47216;42.656;23.232;2023-08-24T04:14:21;94094.84;;;20.52;68.44
61345;BME280;47216;42.656;23.232;2023-08-24T04:16:48;94100.91;;;20.53;68.42
61345;BME280;47216;42.656;23.232;2023-08-24T04:19:16;94093.59;;;20.50;68.58
61345;BME280;47216;42.656;23.232;2023-08-24T04:21:44;94100.72;;;20.49;68.69
61345;BME280;47216;42.656;23.232;2023-08-24T04:24:11;94105.13;;;20.54;68.65
61345;BME280;47216;42.656;23.232;2023-08-24T04:26:38;94101.13;;;20.56;68.19
61345;BME280;47216;42.656;23.232;2023-08-24T04:29:04;94100.56;;;20.46;68.65
61345;BME280;47216;42.656;23.232;2023-08-24T04:31:31;94101.81;;;20.48;68.56
61345;BME280;47216;42.656;23.232;2023-08-24T04:33:58;94096.81;;;20.47;68.95
61345;BME280;47216;42.656;23.232;2023-08-24T04:36:26;94095.69;;;20.39;69.06
61345;BME280;47216;42.656;23.232;2023-08-24T04:38:53;94100.03;;;20.35;68.90
61345;BME280;47216;42.656;23.232;2023-08-24T04:41:19;94092.81;;;20.27;68.81
61345;BME280;47216;42.656;23.232;2023-08-24T04:43:46;94093.16;;;20.34;69.26
61345;BME280;47216;42.656;23.232;2023-08-24T04:46:13;94097.84;;;20.37;69.02
61345;BME280;47216;42.656;23.232;2023-08-24T04:48:39;94107.84;;;20.40;69.08
61345;BME280;47216;42.656;23.232;2023-08-24T04:51:06;94108.03;;;20.44;69.19
61345;BME280;47216;42.656;23.232;2023-08-24T04:53:34;94109.97;;;20.52;69.08
61345;BME280;47216;42.656;23.232;2023-08-24T04:56:01;94104.41;;;20.62;68.84
61345;BME280;47216;42.656;23.232;2023-08-24T04:58:28;94104.91;;;20.64;68.92
61345;BME280;47216;42.656;23.232;2023-08-24T05:00:54;94100.25;;;20.70;68.90
61345;BME280;47216;42.656;23.232;2023-08-24T05:03:21;94101.81;;;20.71;68.99
61345;BME280;47216;42.656;23.232;2023-08-24T05:05:48;94094.38;;;20.82;68.59
61345;BME280;47216;42.656;23.232;2023-08-24T05:08:15;94092.28;;;20.70;67.88
61345;BME280;47216;42.656;23.232;2023-08-24T05:10:43;94094.00;;;20.66;67.96
61345;BME280;47216;42.656;23.232;2023-08-24T05:13:10;94101.69;;;20.76;68.25
61345;BME280;47216;42.656;23.232;2023-08-24T05:15:37;94100.00;;;20.80;68.17
61345;BME280;47216;42.656;23.232;2023-08-24T05:18:04;94100.16;;;20.84;68.09
61345;BME280;47216;42.656;23.232;2023-08-24T05:20:31;94106.91;;;20.90;67.83
61345;BME280;47216;42.656;23.232;2023-08-24T05:22:57;94104.75;;;21.01;68.11
61345;BME280;47216;42.656;23.232;2023-08-24T05:25:25;94107.59;;;21.13;68.49
61345;BME280;47216;42.656;23.232;2023-08-24T05:27:53;94108.91;;;21.24;68.46
61345;BME280;47216;42.656;23.232;2023-08-24T05:30:19;94105.66;;;21.36;68.37
61345;BME280;47216;42.656;23.232;2023-08-24T05:32:46;94108.19;;;21.50;67.73
61345;BME280;47216;42.656;23.232;2023-08-24T05:35:13;94116.81;;;21.64;67.39
61345;BME280;47216;42.656;23.232;2023-08-24T05:37:40;94125.88;;;21.80;67.19
61345;BME280;47216;42.656;23.232;2023-08-24T05:40:07;94125.13;;;21.89;66.68
61345;BME280;47216;42.656;23.232;2023-08-24T05:42:34;94129.03;;;22.00;66.39
61345;BME280;47216;42.656;23.232;2023-08-24T05:45:04;94144.66;;;22.10;66.04
61345;BME280;47216;42.656;23.232;2023-08-24T05:47:30;94138.09;;;22.16;65.90
61345;BME280;47216;42.656;23.232;2023-08-24T05:49:57;94140.75;;;22.25;65.83
61345;BME280;47216;42.656;23.232;2023-08-24T05:52:24;94134.97;;;22.32;65.61
61345;BME280;47216;42.656;23.232;2023-08-24T05:54:51;94134.84;;;22.37;65.40
61345;BME280;47216;42.656;23.232;2023-08-24T05:57:17;94134.81;;;22.45;65.00
61345;BME280;47216;42.656;23.232;2023-08-24T05:59:44;94134.81;;;22.54;65.43
61345;BME280;47216;42.656;23.232;2023-08-24T06:02:12;94142.47;;;22.64;65.13
61345;BME280;47216;42.656;23.232;2023-08-24T06:04:39;94143.38;;;22.69;64.59
61345;BME280;47216;42.656;23.232;2023-08-24T06:07:05;94141.47;;;22.78;64.22
61345;BME280;47216;42.656;23.232;2023-08-24T06:09:32;94135.38;;;22.86;63.90
61345;BME280;47216;42.656;23.232;2023-08-24T06:12:00;94142.69;;;22.98;63.71
61345;BME280;47216;42.656;23.232;2023-08-24T06:14:26;94146.13;;;23.07;63.77
61345;BME280;47216;42.656;23.232;2023-08-24T06:16:53;94138.25;;;23.11;63.20
61345;BME280;47216;42.656;23.232;2023-08-24T06:19:22;94133.53;;;23.25;63.03
61345;BME280;47216;42.656;23.232;2023-08-24T06:21:48;94138.63;;;23.39;62.17
61345;BME280;47216;42.656;23.232;2023-08-24T06:24:15;94135.78;;;23.44;61.57
61345;BME280;47216;42.656;23.232;2023-08-24T06:26:42;94143.84;;;23.56;61.61
61345;BME280;47216;42.656;23.232;2023-08-24T06:29:08;94139.41;;;23.69;60.26
61345;BME280;47216;42.656;23.232;2023-08-24T06:31:35;94135.31;;;23.80;61.10
61345;BME280;47216;42.656;23.232;2023-08-24T06:34:02;94124.44;;;23.85;60.25
61345;BME280;47216;42.656;23.232;2023-08-24T06:36:30;94140.94;;;24.00;60.49
61345;BME280;47216;42.656;23.232;2023-08-24T06:38:57;94140.50;;;23.98;59.18
61345;BME280;47216;42.656;23.232;2023-08-24T06:41:24;94136.13;;;24.14;58.74
61345;BME280;47216;42.656;23.232;2023-08-24T06:43:51;94134.19;;;24.23;58.91
61345;BME280;47216;42.656;23.232;2023-08-24T06:46:19;94133.59;;;24.39;58.54
61345;BME280;47216;42.656;23.232;2023-08-24T06:48:46;94131.16;;;24.46;58.79
61345;BME280;47216;42.656;23.232;2023-08-24T06:51:12;94128.81;;;24.65;58.67
61345;BME280;47216;42.656;23.232;2023-08-24T06:53:40;94130.66;;;24.86;58.01
61345;BME280;47216;42.656;23.232;2023-08-24T06:56:08;94135.34;;;25.01;56.83
61345;BME280;47216;42.656;23.232;2023-08-24T06:58:35;94129.56;;;25.11;57.00
61345;BME280;47216;42.656;23.232;2023-08-24T07:01:02;94132.41;;;25.27;56.33
61345;BME280;47216;42.656;23.232;2023-08-24T07:03:31;94127.63;;;25.45;56.77
61345;BME280;47216;42.656;23.232;2023-08-24T07:05:59;94119.81;;;25.65;55.80
61345;BME280;47216;42.656;23.232;2023-08-24T07:08:25;94121.78;;;25.80;55.46
61345;BME280;47216;42.656;23.232;2023-08-24T07:10:54;94123.03;;;25.95;52.39
61345;BME280;47216;42.656;23.232;2023-08-24T07:13:20;94111.09;;;26.05;52.81
61345;BME280;47216;42.656;23.232;2023-08-24T07:15:47;94113.53;;;26.10;53.53
61345;BME280;47216;42.656;23.232;2023-08-24T07:18:15;94111.69;;;26.26;53.44
61345;BME280;47216;42.656;23.232;2023-08-24T07:20:42;94105.25;;;26.43;53.51
61345;BME280;47216;42.656;23.232;2023-08-24T07:23:09;94106.44;;;26.58;52.67
61345;BME280;47216;42.656;23.232;2023-08-24T07:25:35;94100.84;;;26.63;52.32
61345;BME280;47216;42.656;23.232;2023-08-24T07:28:04;94097.88;;;26.80;51.76
61345;BME280;47216;42.656;23.232;2023-08-24T07:30:31;94094.50;;;26.83;50.83
61345;BME280;47216;42.656;23.232;2023-08-24T07:32:58;94092.44;;;26.93;50.44
61345;BME280;47216;42.656;23.232;2023-08-24T07:35:25;94096.59;;;27.06;50.80
61345;BME280;47216;42.656;23.232;2023-08-24T07:37:51;94110.03;;;27.10;51.65
61345;BME280;47216;42.656;23.232;2023-08-24T07:40:18;94110.13;;;27.13;51.49
61345;BME280;47216;42.656;23.232;2023-08-24T07:42:46;94110.50;;;27.28;51.03
61345;BME280;47216;42.656;23.232;2023-08-24T07:45:15;94109.03;;;27.30;51.02
61345;BME280;47216;42.656;23.232;2023-08-24T07:47:41;94111.53;;;27.39;51.27
61345;BME280;47216;42.656;23.232;2023-08-24T07:50:09;94102.53;;;27.47;50.81
61345;BME280;47216;42.656;23.232;2023-08-24T07:52:37;94102.44;;;27.43;51.59
61345;BME280;47216;42.656;23.232;2023-08-24T07:55:05;94108.22;;;27.61;51.05
61345;BME280;47216;42.656;23.232;2023-08-24T07:57:32;94105.41;;;27.74;51.20
61345;BME280;47216;42.656;23.232;2023-08-24T07:59:59;94103.06;;;27.72;51.37
61345;BME280;47216;42.656;23.232;2023-08-24T08:02:27;94102.88;;;27.81;50.68
61345;BME280;47216;42.656;23.232;2023-08-24T08:04:56;94105.13;;;27.95;49.49
61345;BME280;47216;42.656;23.232;2023-08-24T08:07:24;94100.00;;;28.05;49.95
61345;BME280;47216;42.656;23.232;2023-08-24T08:09:50;94100.41;;;28.07;50.20
61345;BME280;47216;42.656;23.232;2023-08-24T08:12:17;94102.38;;;28.11;50.68
61345;BME280;47216;42.656;23.232;2023-08-24T08:14:44;94104.00;;;28.15;50.00
61345;BME280;47216;42.656;23.232;2023-08-24T08:17:11;94105.91;;;28.34;48.97
61345;BME280;47216;42.656;23.232;2023-08-24T08:19:39;94102.94;;;28.39;49.18
61345;BME280;47216;42.656;23.232;2023-08-24T08:22:06;94102.47;;;28.53;48.37
61345;BME280;47216;42.656;23.232;2023-08-24T08:24:33;94102.00;;;28.47;48.66
61345;BME280;47216;42.656;23.232;2023-08-24T08:27:00;94111.72;;;28.56;47.93
61345;BME280;47216;42.656;23.232;2023-08-24T08:29:26;94105.66;;;28.59;47.58
61345;BME280;47216;42.656;23.232;2023-08-24T08:31:53;94106.03;;;28.80;47.75
61345;BME280;47216;42.656;23.232;2023-08-24T08:34:20;94105.56;;;28.98;46.88
61345;BME280;47216;42.656;23.232;2023-08-24T08:36:48;94103.34;;;29.03;46.89
61345;BME280;47216;42.656;23.232;2023-08-24T08:39:15;94099.72;;;29.15;46.47
61345;BME280;47216;42.656;23.232;2023-08-24T08:41:43;94096.03;;;29.23;45.83
61345;BME280;47216;42.656;23.232;2023-08-24T08:44:13;94091.53;;;29.31;45.74
61345;BME280;47216;42.656;23.232;2023-08-24T08:46:41;94088.66;;;29.43;45.84
61345;BME280;47216;42.656;23.232;2023-08-24T08:49:09;94084.16;;;29.51;46.10
61345;BME280;47216;42.656;23.232;2023-08-24T08:51:36;94081.16;;;29.56;45.40
61345;BME280;47216;42.656;23.232;2023-08-24T08:54:05;94080.66;;;29.73;43.94
61345;BME280;47216;42.656;23.232;2023-08-24T08:56:32;94083.75;;;29.76;43.44
61345;BME280;47216;42.656;23.232;2023-08-24T08:59:00;94075.78;;;29.83;44.15
61345;BME280;47216;42.656;23.232;2023-08-24T09:01:27;94070.47;;;29.86;43.09
61345;BME280;47216;42.656;23.232;2023-08-24T09:03:54;94074.00;;;29.94;44.16
61345;BME280;47216;42.656;23.232;2023-08-24T09:06:23;94068.28;;;29.95;44.32
61345;BME280;47216;42.656;23.232;2023-08-24T09:08:50;94063.44;;;30.08;43.38
61345;BME280;47216;42.656;23.232;2023-08-24T09:11:20;94058.69;;;29.98;43.87
61345;BME280;47216;42.656;23.232;2023-08-24T09:13:47;94056.09;;;30.05;42.48
61345;BME280;47216;42.656;23.232;2023-08-24T09:16:14;94052.03;;;30.19;42.82
61345;BME280;47216;42.656;23.232;2023-08-24T09:18:45;94047.47;;;30.23;42.54
61345;BME280;47216;42.656;23.232;2023-08-24T09:21:12;94052.97;;;30.30;42.92
61345;BME280;47216;42.656;23.232;2023-08-24T09:23:43;94050.69;;;30.35;42.56
61345;BME280;47216;42.656;23.232;2023-08-24T09:26:10;94040.69;;;30.36;42.48
61345;BME280;47216;42.656;23.232;2023-08-24T09:28:42;94033.13;;;30.45;42.70
61345;BME280;47216;42.656;23.232;2023-08-24T09:31:08;94037.50;;;30.61;42.24
61345;BME280;47216;42.656;23.232;2023-08-24T09:33:36;94034.88;;;30.68;41.00
61345;BME280;47216;42.656;23.232;2023-08-24T09:36:06;94031.06;;;30.69;41.68
61345;BME280;47216;42.656;23.232;2023-08-24T09:38:33;94031.78;;;30.66;41.39
61345;BME280;47216;42.656;23.232;2023-08-24T09:41:01;94028.59;;;30.56;41.41
61345;BME280;47216;42.656;23.232;2023-08-24T09:43:30;94022.22;;;30.75;41.23
61345;BME280;47216;42.656;23.232;2023-08-24T09:45:58;94014.31;;;30.90;41.38
61345;BME280;47216;42.656;23.232;2023-08-24T09:48:25;94015.91;;;30.98;40.04
61345;BME280;47216;42.656;23.232;2023-08-24T09:50:52;94013.66;;;31.04;40.79
61345;BME280;47216;42.656;23.232;2023-08-24T09:53:20;94006.03;;;31.13;41.02
61345;BME280;47216;42.656;23.232;2023-08-24T09:55:50;94011.47;;;31.20;40.76
61345;BME280;47216;42.656;23.232;2023-08-24T09:58:19;94005.69;;;31.22;39.07
61345;BME280;47216;42.656;23.232;2023-08-24T10:00:46;94000.78;;;31.34;39.49
61345;BME280;47216;42.656;23.232;2023-08-24T10:03:17;93998.53;;;31.44;39.09
61345;BME280;47216;42.656;23.232;2023-08-24T10:05:47;93998.19;;;31.49;38.26
61345;BME280;47216;42.656;23.232;2023-08-24T10:08:16;93997.25;;;31.23;37.46
61345;BME280;47216;42.656;23.232;2023-08-24T10:10:44;93994.56;;;31.27;38.69
61345;BME280;47216;42.656;23.232;2023-08-24T10:13:18;93998.06;;;31.34;39.50
61345;BME280;47216;42.656;23.232;2023-08-24T10:15:48;93996.25;;;31.46;38.95
61345;BME280;47216;42.656;23.232;2023-08-24T10:18:18;93991.31;;;31.62;38.45
61345;BME280;47216;42.656;23.232;2023-08-24T10:20:45;93988.69;;;31.73;38.73
61345;BME280;47216;42.656;23.232;2023-08-24T10:23:14;93987.56;;;31.88;38.13
61345;BME280;47216;42.656;23.232;2023-08-24T10:25:42;93985.63;;;31.89;38.16
61345;BME280;47216;42.656;23.232;2023-08-24T10:28:11;93991.13;;;31.96;38.95
61345;BME280;47216;42.656;23.232;2023-08-24T10:30:38;93990.75;;;32.12;37.60
61345;BME280;47216;42.656;23.232;2023-08-24T10:33:06;93982.69;;;32.22;37.52
61345;BME280;47216;42.656;23.232;2023-08-24T10:35:34;93977.31;;;32.19;37.66
61345;BME280;47216;42.656;23.232;2023-08-24T10:38:01;93972.31;;;32.46;37.12
61345;BME280;47216;42.656;23.232;2023-08-24T10:40:32;93978.13;;;32.48;36.79
61345;BME280;47216;42.656;23.232;2023-08-24T10:43:02;93986.63;;;32.57;37.00
61345;BME280;47216;42.656;23.232;2023-08-24T10:45:54;93988.94;;;32.62;36.90
61345;BME280;47216;42.656;23.232;2023-08-24T10:48:22;93976.22;;;32.67;35.52
61345;BME280;47216;42.656;23.232;2023-08-24T10:51:17;93973.53;;;32.67;35.38
61345;BME280;47216;42.656;23.232;2023-08-24T10:53:46;93980.88;;;32.59;35.42
61345;BME280;47216;42.656;23.232;2023-08-24T10:56:14;93979.66;;;32.45;36.57
61345;BME280;47216;42.656;23.232;2023-08-24T10:58:41;93969.22;;;32.44;36.59
61345;BME280;47216;42.656;23.232;2023-08-24T11:01:14;93965.00;;;32.43;36.07
61345;BME280;47216;42.656;23.232;2023-08-24T11:03:41;93976.53;;;32.22;37.10
61345;BME280;47216;42.656;23.232;2023-08-24T11:06:20;93976.53;;;32.15;37.46
61345;BME280;47216;42.656;23.232;2023-08-24T11:08:48;93963.75;;;32.01;38.28
61345;BME280;47216;42.656;23.232;2023-08-24T11:11:19;93968.72;;;31.92;38.98
61345;BME280;47216;42.656;23.232;2023-08-24T11:14:13;93967.91;;;31.84;40.00
61345;BME280;47216;42.656;23.232;2023-08-24T11:16:42;93971.00;;;31.82;40.49
61345;BME280;47216;42.656;23.232;2023-08-24T11:19:10;93985.59;;;31.74;40.65
61345;BME280;47216;42.656;23.232;2023-08-24T11:21:39;93984.81;;;31.67;40.76
61345;BME280;47216;42.656;23.232;2023-08-24T11:24:06;93990.91;;;31.53;40.51
61345;BME280;47216;42.656;23.232;2023-08-24T11:26:34;93987.66;;;31.29;41.46
61345;BME280;47216;42.656;23.232;2023-08-24T11:29:04;93988.75;;;31.21;41.07
61345;BME280;47216;42.656;23.232;2023-08-24T11:31:32;93985.31;;;31.24;41.53
61345;BME280;47216;42.656;23.232;2023-08-24T11:33:59;93986.84;;;31.25;41.57
61345;BME280;47216;42.656;23.232;2023-08-24T11:36:26;93995.31;;;31.20;40.07
61345;BME280;47216;42.656;23.232;2023-08-24T11:38:56;93989.47;;;31.14;40.13
61345;BME280;47216;42.656;23.232;2023-08-24T11:41:23;94000.66;;;31.13;40.02
61345;BME280;47216;42.656;23.232;2023-08-24T11:43:58;93997.56;;;31.11;39.88
61345;BME280;47216;42.656;23.232;2023-08-24T11:46:26;93993.28;;;31.06;40.82
61345;BME280;47216;42.656;23.232;2023-08-24T11:48:54;94002.88;;;31.04;40.25
61345;BME280;47216;42.656;23.232;2023-08-24T11:51:21;93993.63;;;31.01;40.25
61345;BME280;47216;42.656;23.232;2023-08-24T11:53:48;93987.47;;;31.01;40.61
61345;BME280;47216;42.656;23.232;2023-08-24T11:56:17;93983.63;;;31.02;41.07
61345;BME280;47216;42.656;23.232;2023-08-24T11:58:48;93985.16;;;30.99;40.77
61345;BME280;47216;42.656;23.232;2023-08-24T12:01:15;93985.09;;;30.92;40.63
61345;BME280;47216;42.656;23.232;2023-08-24T12:03:43;93975.09;;;30.92;40.44
61345;BME280;47216;42.656;23.232;2023-08-24T12:06:11;93961.22;;;30.90;41.06
61345;BME280;47216;42.656;23.232;2023-08-24T12:08:39;93956.59;;;30.87;41.47
61345;BME280;47216;42.656;23.232;2023-08-24T12:11:11;93942.72;;;30.85;41.04
61345;BME280;47216;42.656;23.232;2023-08-24T12:13:42;93944.66;;;30.88;40.73
61345;BME280;47216;42.656;23.232;2023-08-24T12:16:10;93943.50;;;30.86;40.59
61345;BME280;47216;42.656;23.232;2023-08-24T12:18:46;93940.72;;;30.78;40.25
61345;BME280;47216;42.656;23.232;2023-08-24T12:21:13;93942.25;;;30.76;39.87
61345;BME280;47216;42.656;23.232;2023-08-24T12:23:40;93935.72;;;30.77;40.99
61345;BME280;47216;42.656;23.232;2023-08-24T12:26:06;93939.97;;;30.78;41.01
61345;BME280;47216;42.656;23.232;2023-08-24T12:28:34;93943.44;;;30.78;40.13
61345;BME280;47216;42.656;23.232;2023-08-24T12:31:02;93943.44;;;30.78;40.98
61345;BME280;47216;42.656;23.232;2023-08-24T12:33:30;93941.91;;;30.81;40.46
61345;BME280;47216;42.656;23.232;2023-08-24T12:35:58;93946.47;;;30.77;40.30
61345;BME280;47216;42.656;23.232;2023-08-24T12:38:25;93948.03;;;30.78;40.46
61345;BME280;47216;42.656;23.232;2023-08-24T12:40:52;93945.72;;;30.80;40.99
61345;BME280;47216;42.656;23.232;2023-08-24T12:43:20;93943.44;;;30.78;41.37
61345;BME280;47216;42.656;23.232;2023-08-24T12:45:47;93934.94;;;30.80;41.00
61345;BME280;47216;42.656;23.232;2023-08-24T12:48:15;93940.34;;;30.80;40.78
61345;BME280;47216;42.656;23.232;2023-08-24T12:50:42;93938.03;;;30.78;40.48
61345;BME280;47216;42.656;23.232;2023-08-24T12:53:09;93945.72;;;30.80;40.18